sensor_id;sensor_type;location;lat;lon;timestamp;P1;durP1;ratioP1;P2;durP2;ratioP2
45065;SDS011;30830;53.704;10.004;2023-12-20T00:00:25;10.45;;;2.50;;
45065;SDS011;30830;53.704;10.004;2023-12-20T00:02:50;7.90;;;2.67;;
45065;SDS011;30830;53.704;10.004;2023-12-20T00:05:16;9.57;;;2.95;;
45065;SDS011;30830;53.704;10.004;2023-12-20T00:07:41;12.13;;;3.03;;
45065;SDS011;30830;53.704;10.004;2023-12-20T00:10:07;5.20;;;1.63;;
45065;SDS011;30830;53.704;10.004;2023-12-20T00:12:33;5.30;;;1.33;;
45065;SDS011;30830;53.704;10.004;2023-12-20T00:14:58;7.80;;;1.98;;
45065;SDS011;30830;53.704;10.004;2023-12-20T00:17:24;2.60;;;1.10;;
45065;SDS011;30830;53.704;10.004;2023-12-20T00:19:49;6.35;;;1.52;;
45065;SDS011;30830;53.704;10.004;2023-12-20T00:22:15;5.18;;;1.45;;
45065;SDS011;30830;53.704;10.004;2023-12-20T00:24:40;3.42;;;1.58;;
45065;SDS011;30830;53.704;10.004;2023-12-20T00:27:06;3.67;;;1.15;;
45065;SDS011;30830;53.704;10.004;2023-12-20T00:29:32;4.68;;;1.33;;
45065;SDS011;30830;53.704;10.004;2023-12-20T00:31:57;8.45;;;1.63;;
45065;SDS011;30830;53.704;10.004;2023-12-20T00:34:23;4.03;;;1.17;;
45065;SDS011;30830;53.704;10.004;2023-12-20T00:36:49;7.30;;;2.10;;
45065;SDS011;30830;53.704;10.004;2023-12-20T00:39:14;5.00;;;1.20;;
45065;SDS011;30830;53.704;10.004;2023-12-20T00:41:40;7.32;;;1.30;;
45065;SDS011;30830;53.704;10.004;2023-12-20T00:44:05;5.07;;;1.73;;
45065;SDS011;30830;53.704;10.004;2023-12-20T00:46:31;4.72;;;2.05;;
45065;SDS011;30830;53.704;10.004;2023-12-20T00:48:57;9.40;;;1.48;;
45065;SDS011;30830;53.704;10.004;2023-12-20T00:51:22;8.25;;;1.40;;
45065;SDS011;30830;53.704;10.004;2023-12-20T00:53:49;8.93;;;1.55;;
45065;SDS011;30830;53.704;10.004;2023-12-20T00:56:19;4.50;;;1.55;;
45065;SDS011;30830;53.704;10.004;2023-12-20T00:58:45;8.73;;;1.13;;
45065;SDS011;30830;53.704;10.004;2023-12-20T01:01:11;3.30;;;1.25;;
45065;SDS011;30830;53.704;10.004;2023-12-20T01:03:36;4.78;;;1.27;;
45065;SDS011;30830;53.704;10.004;2023-12-20T01:06:02;7.65;;;1.67;;
45065;SDS011;30830;53.704;10.004;2023-12-20T01:08:29;7.80;;;1.58;;
45065;SDS011;30830;53.704;10.004;2023-12-20T01:10:55;11.60;;;1.88;;
45065;SDS011;30830;53.704;10.004;2023-12-20T01:13:20;7.75;;;1.27;;
45065;SDS011;30830;53.704;10.004;2023-12-20T01:15:46;5.63;;;1.27;;
45065;SDS011;30830;53.704;10.004;2023-12-20T01:18:13;9.52;;;1.52;;
45065;SDS011;30830;53.704;10.004;2023-12-20T01:20:39;6.65;;;0.80;;
45065;SDS011;30830;53.704;10.004;2023-12-20T01:23:04;6.30;;;0.98;;
45065;SDS011;30830;53.704;10.004;2023-12-20T01:25:30;5.50;;;1.42;;
45065;SDS011;30830;53.704;10.004;2023-12-20T01:27:55;4.95;;;1.27;;
45065;SDS011;30830;53.704;10.004;2023-12-20T01:30:21;6.43;;;1.55;;
45065;SDS011;30830;53.704;10.004;2023-12-20T01:32:46;3.72;;;1.35;;
45065;SDS011;30830;53.704;10.004;2023-12-20T01:35:12;9.57;;;1.52;;
45065;SDS011;30830;53.704;10.004;2023-12-20T01:37:38;6.18;;;1.40;;
45065;SDS011;30830;53.704;10.004;2023-12-20T01:40:04;6.95;;;1.23;;
45065;SDS011;30830;53.704;10.004;2023-12-20T01:42:30;4.30;;;1.35;;
45065;SDS011;30830;53.704;10.004;2023-12-20T01:44:56;12.75;;;2.05;;
45065;SDS011;30830;53.704;10.004;2023-12-20T01:47:21;11.48;;;2.13;;
45065;SDS011;30830;53.704;10.004;2023-12-20T01:49:48;7.55;;;1.63;;
45065;SDS011;30830;53.704;10.004;2023-12-20T01:52:14;5.50;;;1.13;;
45065;SDS011;30830;53.704;10.004;2023-12-20T01:54:39;10.43;;;2.30;;
45065;SDS011;30830;53.704;10.004;2023-12-20T01:57:06;8.77;;;1.70;;
45065;SDS011;30830;53.704;10.004;2023-12-20T01:59:33;7.65;;;1.67;;
45065;SDS011;30830;53.704;10.004;2023-12-20T02:01:59;8.50;;;1.70;;
45065;SDS011;30830;53.704;10.004;2023-12-20T02:04:25;6.63;;;1.58;;
45065;SDS011;30830;53.704;10.004;2023-12-20T02:06:52;10.13;;;2.13;;
45065;SDS011;30830;53.704;10.004;2023-12-20T02:09:18;4.97;;;1.67;;
45065;SDS011;30830;53.704;10.004;2023-12-20T02:11:44;11.68;;;1.90;;
45065;SDS011;30830;53.704;10.004;2023-12-20T02:14:09;9.45;;;1.50;;
45065;SDS011;30830;53.704;10.004;2023-12-20T02:16:35;7.78;;;1.10;;
45065;SDS011;30830;53.704;10.004;2023-12-20T02:19:01;9.85;;;1.98;;
45065;SDS011;30830;53.704;10.004;2023-12-20T02:21:34;9.73;;;1.75;;
45065;SDS011;30830;53.704;10.004;2023-12-20T02:24:00;9.80;;;1.90;;
45065;SDS011;30830;53.704;10.004;2023-12-20T02:26:26;4.07;;;1.42;;
45065;SDS011;30830;53.704;10.004;2023-12-20T02:28:52;9.50;;;2.47;;
45065;SDS011;30830;53.704;10.004;2023-12-20T02:31:20;3.33;;;1.52;;
45065;SDS011;30830;53.704;10.004;2023-12-20T02:33:47;7.95;;;1.42;;
45065;SDS011;30830;53.704;10.004;2023-12-20T02:36:12;10.90;;;1.88;;
45065;SDS011;30830;53.704;10.004;2023-12-20T02:38:38;3.58;;;1.25;;
45065;SDS011;30830;53.704;10.004;2023-12-20T02:41:04;7.82;;;1.90;;
45065;SDS011;30830;53.704;10.004;2023-12-20T02:43:29;3.83;;;1.65;;
45065;SDS011;30830;53.704;10.004;2023-12-20T02:45:55;6.57;;;1.55;;
45065;SDS011;30830;53.704;10.004;2023-12-20T02:48:20;8.07;;;1.58;;
45065;SDS011;30830;53.704;10.004;2023-12-20T02:50:46;8.82;;;1.50;;
45065;SDS011;30830;53.704;10.004;2023-12-20T02:53:13;4.10;;;1.23;;
45065;SDS011;30830;53.704;10.004;2023-12-20T02:55:39;3.75;;;1.48;;
45065;SDS011;30830;53.704;10.004;2023-12-20T02:58:05;7.15;;;1.50;;
45065;SDS011;30830;53.704;10.004;2023-12-20T03:00:30;6.82;;;1.27;;
45065;SDS011;30830;53.704;10.004;2023-12-20T03:02:56;6.40;;;1.80;;
45065;SDS011;30830;53.704;10.004;2023-12-20T03:05:21;7.47;;;2.03;;
45065;SDS011;30830;53.704;10.004;2023-12-20T03:07:47;11.75;;;1.73;;
45065;SDS011;30830;53.704;10.004;2023-12-20T03:10:12;4.95;;;1.40;;
45065;SDS011;30830;53.704;10.004;2023-12-20T03:12:38;9.85;;;1.70;;
45065;SDS011;30830;53.704;10.004;2023-12-20T03:15:04;6.85;;;1.83;;
45065;SDS011;30830;53.704;10.004;2023-12-20T03:17:29;5.45;;;1.83;;
45065;SDS011;30830;53.704;10.004;2023-12-20T03:19:55;3.97;;;2.05;;
45065;SDS011;30830;53.704;10.004;2023-12-20T03:22:20;4.72;;;2.05;;
45065;SDS011;30830;53.704;10.004;2023-12-20T03:24:46;4.43;;;1.45;;
45065;SDS011;30830;53.704;10.004;2023-12-20T03:27:12;3.88;;;1.27;;
45065;SDS011;30830;53.704;10.004;2023-12-20T03:29:37;7.43;;;1.42;;
45065;SDS011;30830;53.704;10.004;2023-12-20T03:32:03;5.22;;;1.42;;
45065;SDS011;30830;53.704;10.004;2023-12-20T03:34:29;10.75;;;1.55;;
45065;SDS011;30830;53.704;10.004;2023-12-20T03:36:54;6.70;;;1.58;;
45065;SDS011;30830;53.704;10.004;2023-12-20T03:39:20;5.20;;;1.30;;
45065;SDS011;30830;53.704;10.004;2023-12-20T03:41:45;6.90;;;1.55;;
45065;SDS011;30830;53.704;10.004;2023-12-20T03:44:11;7.88;;;1.70;;
45065;SDS011;30830;53.704;10.004;2023-12-20T03:46:36;4.68;;;1.83;;
45065;SDS011;30830;53.704;10.004;2023-12-20T03:49:02;12.82;;;2.13;;
45065;SDS011;30830;53.704;10.004;2023-12-20T03:51:27;3.33;;;1.08;;
45065;SDS011;30830;53.704;10.004;2023-12-20T03:53:53;7.07;;;1.67;;
45065;SDS011;30830;53.704;10.004;2023-12-20T03:56:18;4.53;;;1.35;;
45065;SDS011;30830;53.704;10.004;2023-12-20T03:58:44;5.18;;;1.42;;
45065;SDS011;30830;53.704;10.004;2023-12-20T04:01:10;3.35;;;1.52;;
45065;SDS011;30830;53.704;10.004;2023-12-20T04:03:37;6.10;;;1.10;;
45065;SDS011;30830;53.704;10.004;2023-12-20T04:06:03;10.60;;;1.85;;
45065;SDS011;30830;53.704;10.004;2023-12-20T04:08:29;7.38;;;1.55;;
45065;SDS011;30830;53.704;10.004;2023-12-20T04:10:54;3.88;;;1.20;;
45065;SDS011;30830;53.704;10.004;2023-12-20T04:13:20;9.57;;;2.03;;
45065;SDS011;30830;53.704;10.004;2023-12-20T04:15:45;8.48;;;1.48;;
45065;SDS011;30830;53.704;10.004;2023-12-20T04:18:11;7.68;;;1.25;;
45065;SDS011;30830;53.704;10.004;2023-12-20T04:20:36;7.93;;;1.65;;
45065;SDS011;30830;53.704;10.004;2023-12-20T04:23:02;10.02;;;2.85;;
45065;SDS011;30830;53.704;10.004;2023-12-20T04:25:28;13.75;;;2.10;;
45065;SDS011;30830;53.704;10.004;2023-12-20T04:27:53;4.93;;;1.10;;
45065;SDS011;30830;53.704;10.004;2023-12-20T04:30:19;2.22;;;1.27;;
45065;SDS011;30830;53.704;10.004;2023-12-20T04:32:44;8.50;;;1.63;;
45065;SDS011;30830;53.704;10.004;2023-12-20T04:35:10;4.95;;;1.77;;
45065;SDS011;30830;53.704;10.004;2023-12-20T04:37:35;7.88;;;2.00;;
45065;SDS011;30830;53.704;10.004;2023-12-20T04:40:01;8.30;;;1.67;;
45065;SDS011;30830;53.704;10.004;2023-12-20T04:42:26;14.98;;;2.05;;
45065;SDS011;30830;53.704;10.004;2023-12-20T04:44:52;7.57;;;1.63;;
45065;SDS011;30830;53.704;10.004;2023-12-20T04:47:18;6.55;;;1.38;;
45065;SDS011;30830;53.704;10.004;2023-12-20T04:49:46;6.80;;;1.27;;
45065;SDS011;30830;53.704;10.004;2023-12-20T04:52:11;9.43;;;2.50;;
45065;SDS011;30830;53.704;10.004;2023-12-20T04:54:37;5.40;;;1.42;;
45065;SDS011;30830;53.704;10.004;2023-12-20T04:57:03;8.60;;;2.03;;
45065;SDS011;30830;53.704;10.004;2023-12-20T04:59:28;5.95;;;1.25;;
45065;SDS011;30830;53.704;10.004;2023-12-20T05:01:54;2.63;;;1.40;;
45065;SDS011;30830;53.704;10.004;2023-12-20T05:04:19;9.15;;;2.25;;
45065;SDS011;30830;53.704;10.004;2023-12-20T05:06:45;4.72;;;1.33;;
45065;SDS011;30830;53.704;10.004;2023-12-20T05:09:11;5.35;;;1.58;;
45065;SDS011;30830;53.704;10.004;2023-12-20T05:11:36;10.55;;;1.90;;
45065;SDS011;30830;53.704;10.004;2023-12-20T05:14:02;5.43;;;1.27;;
45065;SDS011;30830;53.704;10.004;2023-12-20T05:16:27;6.72;;;1.27;;
45065;SDS011;30830;53.704;10.004;2023-12-20T05:18:53;9.38;;;1.50;;
45065;SDS011;30830;53.704;10.004;2023-12-20T05:21:21;11.52;;;1.73;;
45065;SDS011;30830;53.704;10.004;2023-12-20T05:23:46;7.60;;;1.85;;
45065;SDS011;30830;53.704;10.004;2023-12-20T05:26:12;6.68;;;1.83;;
45065;SDS011;30830;53.704;10.004;2023-12-20T05:28:37;8.77;;;1.77;;
45065;SDS011;30830;53.704;10.004;2023-12-20T05:31:05;10.30;;;2.55;;
45065;SDS011;30830;53.704;10.004;2023-12-20T05:33:31;8.50;;;1.58;;
45065;SDS011;30830;53.704;10.004;2023-12-20T05:35:57;4.43;;;1.50;;
45065;SDS011;30830;53.704;10.004;2023-12-20T05:38:23;2.90;;;1.45;;
45065;SDS011;30830;53.704;10.004;2023-12-20T05:40:48;13.25;;;2.20;;
45065;SDS011;30830;53.704;10.004;2023-12-20T05:43:14;7.93;;;2.40;;
45065;SDS011;30830;53.704;10.004;2023-12-20T05:45:40;8.38;;;2.50;;
45065;SDS011;30830;53.704;10.004;2023-12-20T05:48:05;8.70;;;1.50;;
45065;SDS011;30830;53.704;10.004;2023-12-20T05:50:31;7.20;;;1.77;;
45065;SDS011;30830;53.704;10.004;2023-12-20T05:52:57;9.57;;;1.83;;
45065;SDS011;30830;53.704;10.004;2023-12-20T05:55:22;7.35;;;1.98;;
45065;SDS011;30830;53.704;10.004;2023-12-20T05:57:48;3.40;;;1.60;;
45065;SDS011;30830;53.704;10.004;2023-12-20T06:00:14;5.30;;;1.60;;
45065;SDS011;30830;53.704;10.004;2023-12-20T06:02:40;11.45;;;2.25;;
45065;SDS011;30830;53.704;10.004;2023-12-20T06:05:06;7.75;;;1.95;;
45065;SDS011;30830;53.704;10.004;2023-12-20T06:07:32;12.20;;;2.03;;
45065;SDS011;30830;53.704;10.004;2023-12-20T06:09:57;7.10;;;1.75;;
45065;SDS011;30830;53.704;10.004;2023-12-20T06:12:25;6.90;;;1.38;;
45065;SDS011;30830;53.704;10.004;2023-12-20T06:14:52;11.25;;;2.60;;
45065;SDS011;30830;53.704;10.004;2023-12-20T06:17:18;7.63;;;2.00;;
45065;SDS011;30830;53.704;10.004;2023-12-20T06:19:43;6.45;;;1.40;;
45065;SDS011;30830;53.704;10.004;2023-12-20T06:22:10;9.50;;;1.83;;
45065;SDS011;30830;53.704;10.004;2023-12-20T06:24:43;7.25;;;1.40;;
45065;SDS011;30830;53.704;10.004;2023-12-20T06:27:09;11.85;;;2.67;;
45065;SDS011;30830;53.704;10.004;2023-12-20T06:29:34;8.30;;;1.70;;
45065;SDS011;30830;53.704;10.004;2023-12-20T06:32:00;5.53;;;1.33;;
45065;SDS011;30830;53.704;10.004;2023-12-20T06:34:27;7.90;;;2.47;;
45065;SDS011;30830;53.704;10.004;2023-12-20T06:36:56;10.48;;;2.20;;
45065;SDS011;30830;53.704;10.004;2023-12-20T06:39:21;12.38;;;2.65;;
45065;SDS011;30830;53.704;10.004;2023-12-20T06:41:47;10.07;;;2.10;;
45065;SDS011;30830;53.704;10.004;2023-12-20T06:44:12;6.18;;;1.98;;
45065;SDS011;30830;53.704;10.004;2023-12-20T06:46:38;7.45;;;2.40;;
45065;SDS011;30830;53.704;10.004;2023-12-20T06:49:03;12.20;;;3.25;;
45065;SDS011;30830;53.704;10.004;2023-12-20T06:51:29;8.82;;;2.03;;
45065;SDS011;30830;53.704;10.004;2023-12-20T06:53:55;12.93;;;2.22;;
45065;SDS011;30830;53.704;10.004;2023-12-20T06:56:21;6.65;;;1.80;;
45065;SDS011;30830;53.704;10.004;2023-12-20T06:58:47;4.28;;;1.65;;
45065;SDS011;30830;53.704;10.004;2023-12-20T07:01:13;8.82;;;2.53;;
45065;SDS011;30830;53.704;10.004;2023-12-20T07:03:39;9.10;;;2.10;;
45065;SDS011;30830;53.704;10.004;2023-12-20T07:06:05;6.53;;;1.65;;
45065;SDS011;30830;53.704;10.004;2023-12-20T07:08:31;13.00;;;2.50;;
45065;SDS011;30830;53.704;10.004;2023-12-20T07:10:57;8.10;;;1.67;;
45065;SDS011;30830;53.704;10.004;2023-12-20T07:13:22;10.60;;;2.50;;
45065;SDS011;30830;53.704;10.004;2023-12-20T07:15:48;9.38;;;2.13;;
45065;SDS011;30830;53.704;10.004;2023-12-20T07:18:14;7.32;;;1.95;;
45065;SDS011;30830;53.704;10.004;2023-12-20T07:20:40;11.80;;;2.85;;
45065;SDS011;30830;53.704;10.004;2023-12-20T07:23:05;5.22;;;1.75;;
45065;SDS011;30830;53.704;10.004;2023-12-20T07:25:31;8.35;;;1.55;;
45065;SDS011;30830;53.704;10.004;2023-12-20T07:27:57;10.63;;;1.88;;
45065;SDS011;30830;53.704;10.004;2023-12-20T07:30:23;4.63;;;1.30;;
45065;SDS011;30830;53.704;10.004;2023-12-20T07:32:49;8.25;;;2.13;;
45065;SDS011;30830;53.704;10.004;2023-12-20T07:35:15;9.13;;;1.85;;
45065;SDS011;30830;53.704;10.004;2023-12-20T07:37:48;12.38;;;2.10;;
45065;SDS011;30830;53.704;10.004;2023-12-20T07:40:14;11.48;;;1.88;;
45065;SDS011;30830;53.704;10.004;2023-12-20T07:42:42;9.40;;;2.10;;
45065;SDS011;30830;53.704;10.004;2023-12-20T07:45:07;12.70;;;2.08;;
45065;SDS011;30830;53.704;10.004;2023-12-20T07:47:35;9.77;;;2.38;;
45065;SDS011;30830;53.704;10.004;2023-12-20T07:50:01;10.57;;;2.13;;
45065;SDS011;30830;53.704;10.004;2023-12-20T07:52:27;17.77;;;2.35;;
45065;SDS011;30830;53.704;10.004;2023-12-20T07:54:54;9.02;;;2.58;;
45065;SDS011;30830;53.704;10.004;2023-12-20T07:57:19;8.65;;;2.42;;
45065;SDS011;30830;53.704;10.004;2023-12-20T07:59:45;7.78;;;2.17;;
45065;SDS011;30830;53.704;10.004;2023-12-20T08:02:10;14.30;;;2.90;;
45065;SDS011;30830;53.704;10.004;2023-12-20T08:04:36;8.30;;;2.08;;
45065;SDS011;30830;53.704;10.004;2023-12-20T08:07:01;7.60;;;1.83;;
45065;SDS011;30830;53.704;10.004;2023-12-20T08:09:28;10.60;;;2.05;;
45065;SDS011;30830;53.704;10.004;2023-12-20T08:11:54;15.18;;;2.58;;
45065;SDS011;30830;53.704;10.004;2023-12-20T08:14:20;10.27;;;2.08;;
45065;SDS011;30830;53.704;10.004;2023-12-20T08:16:46;7.45;;;3.40;;
45065;SDS011;30830;53.704;10.004;2023-12-20T08:19:11;8.73;;;1.95;;
45065;SDS011;30830;53.704;10.004;2023-12-20T08:21:37;8.90;;;2.17;;
45065;SDS011;30830;53.704;10.004;2023-12-20T08:24:03;8.20;;;1.92;;
45065;SDS011;30830;53.704;10.004;2023-12-20T08:26:28;5.70;;;1.88;;
45065;SDS011;30830;53.704;10.004;2023-12-20T08:28:54;6.88;;;2.17;;
45065;SDS011;30830;53.704;10.004;2023-12-20T08:31:20;8.98;;;2.70;;
45065;SDS011;30830;53.704;10.004;2023-12-20T08:33:46;5.97;;;2.10;;
45065;SDS011;30830;53.704;10.004;2023-12-20T08:36:13;9.38;;;2.25;;
45065;SDS011;30830;53.704;10.004;2023-12-20T08:38:39;10.27;;;2.17;;
45065;SDS011;30830;53.704;10.004;2023-12-20T08:41:05;11.45;;;2.85;;
45065;SDS011;30830;53.704;10.004;2023-12-20T08:43:32;7.30;;;2.17;;
45065;SDS011;30830;53.704;10.004;2023-12-20T08:45:59;9.35;;;2.17;;
45065;SDS011;30830;53.704;10.004;2023-12-20T08:48:25;7.78;;;2.08;;
45065;SDS011;30830;53.704;10.004;2023-12-20T08:50:50;6.65;;;1.83;;
45065;SDS011;30830;53.704;10.004;2023-12-20T08:53:17;10.40;;;2.15;;
45065;SDS011;30830;53.704;10.004;2023-12-20T08:55:46;7.32;;;1.80;;
45065;SDS011;30830;53.704;10.004;2023-12-20T08:58:12;12.85;;;2.90;;
45065;SDS011;30830;53.704;10.004;2023-12-20T09:00:38;10.25;;;2.00;;
45065;SDS011;30830;53.704;10.004;2023-12-20T09:03:04;13.13;;;2.80;;
45065;SDS011;30830;53.704;10.004;2023-12-20T09:05:29;7.60;;;2.22;;
45065;SDS011;30830;53.704;10.004;2023-12-20T09:07:55;13.15;;;2.15;;
45065;SDS011;30830;53.704;10.004;2023-12-20T09:10:21;9.00;;;2.28;;
45065;SDS011;30830;53.704;10.004;2023-12-20T09:12:53;8.00;;;1.63;;
45065;SDS011;30830;53.704;10.004;2023-12-20T09:15:25;2.90;;;1.23;;
45065;SDS011;30830;53.704;10.004;2023-12-20T09:17:52;3.28;;;1.38;;
45065;SDS011;30830;53.704;10.004;2023-12-20T09:20:19;5.03;;;1.02;;
45065;SDS011;30830;53.704;10.004;2023-12-20T09:22:45;7.97;;;1.75;;
45065;SDS011;30830;53.704;10.004;2023-12-20T09:25:10;6.35;;;1.10;;
45065;SDS011;30830;53.704;10.004;2023-12-20T09:27:37;8.80;;;1.00;;
45065;SDS011;30830;53.704;10.004;2023-12-20T09:30:03;2.13;;;0.77;;
45065;SDS011;30830;53.704;10.004;2023-12-20T09:32:30;2.25;;;0.40;;
45065;SDS011;30830;53.704;10.004;2023-12-20T09:34:56;0.80;;;0.45;;
45065;SDS011;30830;53.704;10.004;2023-12-20T09:37:21;0.22;;;0.20;;
45065;SDS011;30830;53.704;10.004;2023-12-20T09:39:47;0.35;;;0.17;;
45065;SDS011;30830;53.704;10.004;2023-12-20T09:42:13;0.52;;;0.30;;
45065;SDS011;30830;53.704;10.004;2023-12-20T09:44:49;1.38;;;0.30;;
45065;SDS011;30830;53.704;10.004;2023-12-20T09:47:14;1.33;;;0.40;;
45065;SDS011;30830;53.704;10.004;2023-12-20T09:49:44;1.05;;;0.60;;
45065;SDS011;30830;53.704;10.004;2023-12-20T09:52:10;2.35;;;0.40;;
45065;SDS011;30830;53.704;10.004;2023-12-20T09:54:37;0.30;;;0.00;;
45065;SDS011;30830;53.704;10.004;2023-12-20T09:57:03;0.85;;;0.25;;
45065;SDS011;30830;53.704;10.004;2023-12-20T09:59:29;0.68;;;0.30;;
45065;SDS011;30830;53.704;10.004;2023-12-20T10:01:55;1.23;;;0.25;;
45065;SDS011;30830;53.704;10.004;2023-12-20T10:04:24;1.02;;;0.60;;
45065;SDS011;30830;53.704;10.004;2023-12-20T10:06:50;1.25;;;0.25;;
45065;SDS011;30830;53.704;10.004;2023-12-20T10:09:17;1.33;;;0.38;;
45065;SDS011;30830;53.704;10.004;2023-12-20T10:11:42;1.08;;;0.40;;
45065;SDS011;30830;53.704;10.004;2023-12-20T10:14:10;3.80;;;0.70;;
45065;SDS011;30830;53.704;10.004;2023-12-20T10:16:36;1.58;;;0.52;;
45065;SDS011;30830;53.704;10.004;2023-12-20T10:19:01;4.55;;;0.60;;
45065;SDS011;30830;53.704;10.004;2023-12-20T10:21:27;1.65;;;0.60;;
45065;SDS011;30830;53.704;10.004;2023-12-20T10:23:56;3.30;;;0.75;;
45065;SDS011;30830;53.704;10.004;2023-12-20T10:26:23;2.95;;;0.60;;
45065;SDS011;30830;53.704;10.004;2023-12-20T10:28:56;1.88;;;0.40;;
45065;SDS011;30830;53.704;10.004;2023-12-20T10:31:34;5.38;;;0.77;;
45065;SDS011;30830;53.704;10.004;2023-12-20T10:34:01;4.05;;;0.70;;
45065;SDS011;30830;53.704;10.004;2023-12-20T10:36:31;2.85;;;0.50;;
45065;SDS011;30830;53.704;10.004;2023-12-20T10:38:58;3.70;;;0.85;;
45065;SDS011;30830;53.704;10.004;2023-12-20T10:41:28;4.30;;;0.80;;
45065;SDS011;30830;53.704;10.004;2023-12-20T10:43:58;3.20;;;0.88;;
45065;SDS011;30830;53.704;10.004;2023-12-20T10:46:26;6.10;;;1.10;;
45065;SDS011;30830;53.704;10.004;2023-12-20T10:48:53;4.03;;;0.80;;
45065;SDS011;30830;53.704;10.004;2023-12-20T10:51:20;3.90;;;0.80;;
45065;SDS011;30830;53.704;10.004;2023-12-20T10:53:47;4.25;;;0.90;;
45065;SDS011;30830;53.704;10.004;2023-12-20T10:56:15;1.60;;;0.70;;
45065;SDS011;30830;53.704;10.004;2023-12-20T10:58:47;1.30;;;0.57;;
45065;SDS011;30830;53.704;10.004;2023-12-20T11:01:14;3.08;;;0.50;;
45065;SDS011;30830;53.704;10.004;2023-12-20T11:03:44;4.03;;;0.90;;
45065;SDS011;30830;53.704;10.004;2023-12-20T11:11:52;3.30;;;1.20;;
45065;SDS011;30830;53.704;10.004;2023-12-20T11:17:12;6.28;;;1.27;;
45065;SDS011;30830;53.704;10.004;2023-12-20T11:22:26;1.45;;;0.63;;
45065;SDS011;30830;53.704;10.004;2023-12-20T11:24:54;3.72;;;0.88;;
45065;SDS011;30830;53.704;10.004;2023-12-20T11:27:27;4.63;;;1.05;;
45065;SDS011;30830;53.704;10.004;2023-12-20T11:29:53;6.00;;;1.23;;
45065;SDS011;30830;53.704;10.004;2023-12-20T11:34:59;6.65;;;0.98;;
45065;SDS011;30830;53.704;10.004;2023-12-20T11:37:41;6.20;;;1.58;;
45065;SDS011;30830;53.704;10.004;2023-12-20T11:40:13;6.75;;;1.63;;
45065;SDS011;30830;53.704;10.004;2023-12-20T11:42:49;4.97;;;1.35;;
45065;SDS011;30830;53.704;10.004;2023-12-20T11:45:23;6.15;;;1.48;;
45065;SDS011;30830;53.704;10.004;2023-12-20T11:47:51;3.50;;;1.17;;
45065;SDS011;30830;53.704;10.004;2023-12-20T11:50:18;5.28;;;0.88;;
45065;SDS011;30830;53.704;10.004;2023-12-20T11:52:44;4.50;;;1.23;;
45065;SDS011;30830;53.704;10.004;2023-12-20T11:55:10;4.95;;;1.77;;
45065;SDS011;30830;53.704;10.004;2023-12-20T11:57:36;8.52;;;1.65;;
45065;SDS011;30830;53.704;10.004;2023-12-20T12:00:05;6.70;;;1.70;;
45065;SDS011;30830;53.704;10.004;2023-12-20T12:02:31;1.55;;;0.88;;
45065;SDS011;30830;53.704;10.004;2023-12-20T12:04:57;6.75;;;1.38;;
45065;SDS011;30830;53.704;10.004;2023-12-20T12:07:24;6.40;;;1.40;;
45065;SDS011;30830;53.704;10.004;2023-12-20T12:09:50;8.35;;;1.55;;
45065;SDS011;30830;53.704;10.004;2023-12-20T12:12:16;9.35;;;1.70;;
45065;SDS011;30830;53.704;10.004;2023-12-20T12:14:44;9.68;;;1.83;;
45065;SDS011;30830;53.704;10.004;2023-12-20T12:17:10;9.32;;;1.92;;
45065;SDS011;30830;53.704;10.004;2023-12-20T12:19:37;5.72;;;2.03;;
45065;SDS011;30830;53.704;10.004;2023-12-20T12:22:04;7.72;;;1.58;;
45065;SDS011;30830;53.704;10.004;2023-12-20T12:24:36;7.25;;;1.45;;
45065;SDS011;30830;53.704;10.004;2023-12-20T12:27:02;8.02;;;2.20;;
45065;SDS011;30830;53.704;10.004;2023-12-20T12:29:28;9.68;;;2.42;;
45065;SDS011;30830;53.704;10.004;2023-12-20T12:31:54;9.20;;;2.45;;
45065;SDS011;30830;53.704;10.004;2023-12-20T12:34:20;15.45;;;2.83;;
45065;SDS011;30830;53.704;10.004;2023-12-20T12:36:45;7.47;;;1.70;;
45065;SDS011;30830;53.704;10.004;2023-12-20T12:39:14;10.23;;;2.45;;
45065;SDS011;30830;53.704;10.004;2023-12-20T12:41:42;9.32;;;2.08;;
45065;SDS011;30830;53.704;10.004;2023-12-20T12:44:07;11.10;;;1.73;;
45065;SDS011;30830;53.704;10.004;2023-12-20T12:46:33;9.60;;;2.53;;
45065;SDS011;30830;53.704;10.004;2023-12-20T12:48:59;10.80;;;2.55;;
45065;SDS011;30830;53.704;10.004;2023-12-20T12:51:24;15.30;;;2.55;;
45065;SDS011;30830;53.704;10.004;2023-12-20T12:53:50;15.07;;;2.60;;
45065;SDS011;30830;53.704;10.004;2023-12-20T12:56:16;9.55;;;2.22;;
45065;SDS011;30830;53.704;10.004;2023-12-20T12:58:42;12.75;;;2.47;;
45065;SDS011;30830;53.704;10.004;2023-12-20T13:01:07;11.00;;;2.20;;
45065;SDS011;30830;53.704;10.004;2023-12-20T13:03:33;10.57;;;2.95;;
45065;SDS011;30830;53.704;10.004;2023-12-20T13:06:00;7.10;;;2.20;;
45065;SDS011;30830;53.704;10.004;2023-12-20T13:08:25;13.45;;;2.72;;
45065;SDS011;30830;53.704;10.004;2023-12-20T13:10:51;8.90;;;1.80;;
45065;SDS011;30830;53.704;10.004;2023-12-20T13:13:17;10.68;;;2.28;;
45065;SDS011;30830;53.704;10.004;2023-12-20T13:15:43;7.93;;;2.55;;
45065;SDS011;30830;53.704;10.004;2023-12-20T13:18:15;8.00;;;2.60;;
45065;SDS011;30830;53.704;10.004;2023-12-20T13:20:41;9.07;;;1.83;;
45065;SDS011;30830;53.704;10.004;2023-12-20T13:23:07;14.15;;;2.90;;
45065;SDS011;30830;53.704;10.004;2023-12-20T13:25:33;16.20;;;2.15;;
45065;SDS011;30830;53.704;10.004;2023-12-20T13:27:58;10.70;;;2.85;;
45065;SDS011;30830;53.704;10.004;2023-12-20T13:30:24;16.42;;;2.15;;
45065;SDS011;30830;53.704;10.004;2023-12-20T13:32:50;15.40;;;2.80;;
45065;SDS011;30830;53.704;10.004;2023-12-20T13:35:15;13.10;;;3.13;;
45065;SDS011;30830;53.704;10.004;2023-12-20T13:37:41;12.30;;;3.50;;
45065;SDS011;30830;53.704;10.004;2023-12-20T13:40:07;13.05;;;2.88;;
45065;SDS011;30830;53.704;10.004;2023-12-20T13:42:33;12.30;;;2.70;;
45065;SDS011;30830;53.704;10.004;2023-12-20T13:44:58;6.25;;;1.98;;
45065;SDS011;30830;53.704;10.004;2023-12-20T13:47:25;8.18;;;2.33;;
45065;SDS011;30830;53.704;10.004;2023-12-20T13:49:50;9.23;;;2.22;;
45065;SDS011;30830;53.704;10.004;2023-12-20T13:52:16;14.70;;;3.17;;
45065;SDS011;30830;53.704;10.004;2023-12-20T13:54:42;6.55;;;2.72;;
45065;SDS011;30830;53.704;10.004;2023-12-20T13:57:07;16.55;;;3.92;;
45065;SDS011;30830;53.704;10.004;2023-12-20T13:59:33;10.38;;;3.35;;
45065;SDS011;30830;53.704;10.004;2023-12-20T14:02:00;14.98;;;4.05;;
45065;SDS011;30830;53.704;10.004;2023-12-20T14:04:26;8.68;;;3.35;;
45065;SDS011;30830;53.704;10.004;2023-12-20T14:06:51;12.23;;;2.75;;
45065;SDS011;30830;53.704;10.004;2023-12-20T14:09:17;10.82;;;2.78;;
45065;SDS011;30830;53.704;10.004;2023-12-20T14:11:42;7.90;;;2.92;;
45065;SDS011;30830;53.704;10.004;2023-12-20T14:14:08;7.68;;;2.80;;
45065;SDS011;30830;53.704;10.004;2023-12-20T14:16:34;13.93;;;3.35;;
45065;SDS011;30830;53.704;10.004;2023-12-20T14:19:00;8.60;;;2.53;;
45065;SDS011;30830;53.704;10.004;2023-12-20T14:21:28;16.77;;;3.47;;
45065;SDS011;30830;53.704;10.004;2023-12-20T14:23:53;9.32;;;2.95;;
45065;SDS011;30830;53.704;10.004;2023-12-20T14:26:19;16.33;;;3.10;;
45065;SDS011;30830;53.704;10.004;2023-12-20T14:28:44;13.15;;;3.20;;
45065;SDS011;30830;53.704;10.004;2023-12-20T14:31:10;10.82;;;2.72;;
45065;SDS011;30830;53.704;10.004;2023-12-20T14:33:35;7.32;;;4.10;;
45065;SDS011;30830;53.704;10.004;2023-12-20T14:36:03;5.40;;;2.50;;
45065;SDS011;30830;53.704;10.004;2023-12-20T14:38:30;6.75;;;2.83;;